Quick Links (Output Below):   Max & Min Temps   /   Climate Reports   /   Zone Forecasts
River Forecasts   /   Forestry Forecasts   /   Aviation Forecasts   /   Radars   /   Features

Terminal Aerodrome Forecast (Little Rock)

Pick a Site:
Arkadelphia | El Dorado | Fayetteville | Fort Smith | Harrison | Highfill | Hot Springs | Jonesboro
Little Rock | Monticello | Mountain Home | Pine Bluff | Texarkana
 Forecast 

KLIT 200532Z 2006/2106 23005KT P6SM SCT250
     FM201500 22009KT P6SM FEW060 SCT250
     FM210100 17005KT P6SM SCT250=


 Latest METARs (Observations) 
How to Decode METARs
06Z KLIT 200553Z 00000KT 10SM FEW120 27/24 A2991 RMK AO2 SLP128
         T02720239 10322 20267 403440206 53003
         
05Z KLIT 200453Z 22003KT 10SM FEW120 27/24 A2990 RMK AO2 SLP125
         T02720239
         
04Z KLIT 200353Z 23006KT 10SM FEW250 28/24 A2990 RMK AO2 SLP125
         T02780244
         
03Z KLIT 200253Z 22007KT 10SM SCT120 BKN250 28/24 A2990 RMK AO2 SLP124
         T02830244 51020
         
02Z KLIT 200153Z 22008KT 10SM FEW120 SCT200 29/24 A2988 RMK AO2 SLP118
         T02940239
         
01Z KLIT 200053Z 21010KT 10SM FEW030 SCT120 BKN200 31/24 A2987 RMK AO2
         SLP112 T03110239
         
00Z KLIT 192353Z 20007KT 10SM FEW035 BKN200 32/24 A2984 RMK AO2 SLP104
         T03220239 10344 20322 55005
         
***** Today's Observations (Above) *****


23Z KLIT 192253Z 21010KT 10SM FEW040 SCT200 34/23 A2983 RMK AO2 SLP100
         T03390233
         
22Z KLIT 192153Z 20011KT 10SM FEW040 SCT200 34/23 A2984 RMK AO2 SLP104
         T03390233
         
21Z KLIT 192053Z 21010KT 10SM FEW040 SCT120 34/23 A2985 RMK AO2 SLP108
         T03440233 58019
         
***** Yesterday's Observations (Above) *****


Back to Main Page
http://www.srh.noaa.gov/lzk/qfcst.php

USA.gov is the U.S. government's official web portal to all federal, state and local government web resources and services.